Nearby METAR Reports

 

KLXT - Lees Summit Muni, Missouri, USA
Distance from station: E 5mi, 9km
Updated: Thu, 24-Jul-2014 4:53am CDT
Clear
Clear
 Wind from ENE
Wind: ENE 6 mph , 9 km/h
Temperature: 64°F , 18°C
Dew Point: 61°F , 16°C
Humidity: 88%
Barometer: 30.13 inHg , 1020.3 hPa
Clouds: Clear
Visibility: 10 miles , 16 km
2014/07/24 09:53 KLXT 240953Z AUTO 07005KT 10SM CLR 18/16 A3013 RMK AO2 SLP194 T01830156
KMKC - Kansas City/Dntn, Missouri, USA
Distance from station: NW 12mi, 19km
Updated: Thu, 24-Jul-2014 4:54am CDT
Clear
Clear
 Wind from E
Wind: E 5 mph , 7 km/h
Temperature: 68°F , 20°C
Dew Point: 61°F , 16°C
Humidity: 78%
Barometer: 30.12 inHg , 1020 hPa
Clouds: Clear
Visibility: 10 miles , 16 km
2014/07/24 09:54 KMKC 240954Z 08004KT 10SM CLR 20/16 A3012 RMK AO2 SLP192 T02000161
 
KIXD - Olathe/Industria, Kansas, USA
Distance from station: WSW 25mi, 41km
Updated: Thu, 24-Jul-2014 4:53am CDT
Clear
Clear
 Wind from E
Wind: E 7 mph , 11 km/h
Temperature: 66°F , 19°C
Dew Point: 61°F , 16°C
Humidity: 83%
Barometer: 30.13 inHg , 1020.3 hPa
Clouds: Clear
Visibility: 10 miles , 16 km
2014/07/24 09:53 KIXD 240953Z 08006KT 10SM CLR 19/16 A3013 RMK AO2 SLP190 T01940161
KMCI - Kansas City/Intl, Missouri, USA
Distance from station: NW 26mi, 42km
Updated: Thu, 24-Jul-2014 4:53am CDT
Few Clouds
Few Clouds
 Wind from E
Wind: E 9 mph , 15 km/h
Temperature: 68°F , 20°C
Dew Point: 59°F , 15°C
Humidity: 73%
Barometer: 30.12 inHg , 1020 hPa
Clouds: Few Clouds
Visibility: 10 miles , 16 km
Cloud details: Few Clouds 25000 ft
2014/07/24 09:53 KMCI 240953Z 10008KT 10SM FEW250 20/15 A3012 RMK AO2 SLP190 T02000150
 
KRCM - Warrensburg Skyh, Missouri, USA
Distance from station: ESE 38mi, 62km
Updated: Thu, 24-Jul-2014 5:15am CDT
Clear
Clear
 Wind from calm
Wind: Calm
Temperature: 63°F , 17°C
Dew Point: 59°F , 15°C
Humidity: 88%
Barometer: 30.13 inHg , 1020.3 hPa
Clouds: Clear
Visibility: 10 miles , 16 km
2014/07/24 10:15 KRCM 241015Z AUTO 00000KT 10SM CLR 17/15 A3013 RMK AO2
KLWC - Lawrence, Kansas, USA
Distance from station: W 40mi, 65km
Updated: Thu, 24-Jul-2014 4:52am CDT
Clear
Clear
 Wind from ESE
Wind: ESE 3 mph , 6 km/h
Temperature: 66°F , 19°C
Dew Point: 61°F , 16°C
Humidity: 83%
Barometer: 30.12 inHg , 1020 hPa
Clouds: Clear
Visibility: 10 miles , 16 km
2014/07/24 09:52 KLWC 240952Z AUTO 12003KT 10SM CLR 19/16 A3012 RMK AO2 SLP192 T01890161
 
KSZL - Whiteman Afb, Missouri, USA
Distance from station: ESE 53mi, 86km
Updated: Thu, 24-Jul-2014 4:58am CDT
Clear
Clear
 Wind from calm
Wind: Calm
Temperature: 63°F , 17°C
Dew Point: 57°F , 14°C
Humidity: 83%
Barometer: 30.12 inHg , 1020 hPa
Clouds: Clear
Visibility: 10 miles , 16 km
2014/07/24 09:58 KSZL 240958Z 00000KT 10SM CLR 17/14 A3012 RMK AO2A SLP196 T01660143
KSTJ - St. Joseph, Missouri, USA
Distance from station: NNW 59mi, 95km
Updated: Thu, 24-Jul-2014 4:53am CDT
Clear
Clear
 Wind from ESE
Wind: ESE 5 mph , 7 km/h
Temperature: 66°F , 19°C
Dew Point: 59°F , 15°C
Humidity: 78%
Barometer: 30.13 inHg , 1020.3 hPa
Clouds: Clear
Visibility: 10 miles , 16 km
2014/07/24 09:53 KSTJ 240953Z AUTO 11004KT 10SM CLR 19/15 A3013 RMK AO2 SLP195 T01940150
 
KGLY - Clinton, Missouri, USA
Distance from station: SE 61mi, 98km
Updated: Thu, 24-Jul-2014 5:35am CDT
Clear
Clear
 Wind from calm
Wind: Calm
Temperature: 64°F , 18°C
Dew Point: 61°F , 16°C
Humidity: 88%
Barometer: 30.12 inHg , 1020 hPa
Clouds: Clear
Visibility: 10 miles , 16 km
2014/07/24 10:35 KGLY 241035Z AUTO 00000KT 10SM CLR 18/16 A3012 RMK AO2
KFOE - Topeka/Forbes, Kansas, USA
Distance from station: W 64mi, 103km
Updated: Thu, 24-Jul-2014 4:53am CDT
Clear
Clear
 Wind from calm
Wind: Calm
Temperature: 66°F , 19°C
Dew Point: 61°F , 16°C
Humidity: 83%
Barometer: 30.12 inHg , 1020 hPa
Clouds: Clear
Visibility: 10 miles , 16 km
2014/07/24 09:53 KFOE 240953Z AUTO 00000KT 10SM CLR 19/16 A3012 RMK AO2 SLP187 T01890161
 
KDMO - Sedalia, Missouri, USA
Distance from station: ESE 72mi, 116km
Updated: Thu, 24-Jul-2014 4:53am CDT
Clear
Clear
 Wind from ENE
Wind: ENE 3 mph , 6 km/h
Temperature: 64°F , 18°C
Dew Point: 59°F , 15°C
Humidity: 83%
Barometer: 30.13 inHg , 1020.3 hPa
Clouds: Clear
Visibility: 10 miles , 16 km
2014/07/24 09:53 KDMO 240953Z AUTO 07003KT 10SM CLR 18/15 A3013 RMK AO2 SLP194 T01780150
KCDJ - Chillicothe, Missouri, USA
Distance from station: NE 74mi, 120km
Updated: Thu, 24-Jul-2014 4:52am CDT

 Wind from calm
Wind: Calm
Temperature: 61°F , 16°C
Dew Point: 57°F , 14°C
Humidity: 88%
Barometer: 30.15 inHg , 1021 hPa
2014/07/24 09:52 KCDJ 240952Z AUTO 00000KT 16/14 A3015 RMK AO1 SLP199 T01610144
 
KFNB - Falls City/Brenn, Nebraska, USA
Distance from station: NW 96mi, 154km
Updated: Thu, 24-Jul-2014 4:53am CDT
Clear
Clear
 Wind from ESE
Wind: ESE 5 mph , 7 km/h
Temperature: 63°F , 17°C
Dew Point: 61°F , 16°C
Humidity: 94%
Barometer: 30.12 inHg , 1020 hPa
Clouds: Clear
Visibility: 10 miles , 16 km
2014/07/24 09:53 KFNB 240953Z AUTO 12004KT 10SM CLR 17/16 A3012 RMK AO2 SLP193 T01720156
KVER - Boonville, Missouri, USA
Distance from station: E 96mi, 154km
Updated: Thu, 24-Jul-2014 5:35am CDT
Clear
Clear
 Wind from ENE
Wind: ENE 3 mph , 6 km/h
Temperature: 63°F , 17°C
Dew Point: 61°F , 16°C
Humidity: 94%
Barometer: 30.13 inHg , 1020.3 hPa
Clouds: Clear
Visibility: 10 miles , 16 km
2014/07/24 10:35 KVER 241035Z AUTO 06003KT 10SM CLR 17/16 A3013 RMK AO2 T01660157